sensor_id;sensor_type;location;lat;lon;timestamp;pressure;altitude;pressure_sealevel;temperature;humidity
18436;BME280;9346;52.006;4.720;2022-07-04T00:00:23;101892.72;;;16.45;100.00
18436;BME280;9346;52.006;4.720;2022-07-04T00:02:50;101895.78;;;16.44;100.00
18436;BME280;9346;52.006;4.720;2022-07-04T00:05:17;101891.31;;;16.43;100.00
18436;BME280;9346;52.006;4.720;2022-07-04T00:07:45;101889.63;;;16.42;100.00
18436;BME280;9346;52.006;4.720;2022-07-04T00:10:16;101893.53;;;16.41;100.00
18436;BME280;9346;52.006;4.720;2022-07-04T00:12:43;101892.97;;;16.39;100.00
18436;BME280;9346;52.006;4.720;2022-07-04T00:15:11;101885.75;;;16.38;100.00
18436;BME280;9346;52.006;4.720;2022-07-04T00:17:39;101879.38;;;16.37;100.00
18436;BME280;9346;52.006;4.720;2022-07-04T00:20:08;101881.34;;;16.37;100.00
18436;BME280;9346;52.006;4.720;2022-07-04T00:22:35;101883.28;;;16.36;100.00
18436;BME280;9346;52.006;4.720;2022-07-04T00:25:02;101871.31;;;16.36;100.00
18436;BME280;9346;52.006;4.720;2022-07-04T00:27:31;101876.34;;;16.34;100.00
18436;BME280;9346;52.006;4.720;2022-07-04T00:29:58;101869.38;;;16.31;100.00
18436;BME280;9346;52.006;4.720;2022-07-04T00:32:25;101873.28;;;16.30;100.00
18436;BME280;9346;52.006;4.720;2022-07-04T00:34:52;101871.66;;;16.29;100.00
18436;BME280;9346;52.006;4.720;2022-07-04T00:37:19;101872.22;;;16.26;100.00
18436;BME280;9346;52.006;4.720;2022-07-04T00:39:45;101859.19;;;16.22;100.00
18436;BME280;9346;52.006;4.720;2022-07-04T00:42:13;101863.38;;;16.19;100.00
18436;BME280;9346;52.006;4.720;2022-07-04T00:44:42;101860.88;;;16.18;100.00
18436;BME280;9346;52.006;4.720;2022-07-04T00:47:09;101862.25;;;16.15;100.00
18436;BME280;9346;52.006;4.720;2022-07-04T00:49:36;101866.44;;;16.13;100.00
18436;BME280;9346;52.006;4.720;2022-07-04T00:52:06;101869.00;;;16.09;100.00
18436;BME280;9346;52.006;4.720;2022-07-04T00:54:34;101874.00;;;16.07;100.00
18436;BME280;9346;52.006;4.720;2022-07-04T00:57:02;101869.00;;;16.04;100.00
18436;BME280;9346;52.006;4.720;2022-07-04T00:59:29;101874.84;;;16.03;100.00
18436;BME280;9346;52.006;4.720;2022-07-04T01:01:57;101868.72;;;16.01;100.00
18436;BME280;9346;52.006;4.720;2022-07-04T01:04:24;101869.63;;;15.96;100.00
18436;BME280;9346;52.006;4.720;2022-07-04T01:06:52;101869.91;;;15.95;100.00
18436;BME280;9346;52.006;4.720;2022-07-04T01:09:19;101871.28;;;15.92;100.00
18436;BME280;9346;52.006;4.720;2022-07-04T01:11:48;101866.28;;;15.89;100.00
18436;BME280;9346;52.006;4.720;2022-07-04T01:14:15;101864.63;;;15.88;100.00
18436;BME280;9346;52.006;4.720;2022-07-04T01:16:42;101869.63;;;15.86;100.00
18436;BME280;9346;52.006;4.720;2022-07-04T01:19:10;101868.25;;;15.84;100.00
18436;BME280;9346;52.006;4.720;2022-07-04T01:21:39;101867.16;;;15.80;100.00
18436;BME280;9346;52.006;4.720;2022-07-04T01:24:06;101869.94;;;15.80;100.00
18436;BME280;9346;52.006;4.720;2022-07-04T01:26:32;101861.06;;;15.78;100.00
18436;BME280;9346;52.006;4.720;2022-07-04T01:28:59;101857.75;;;15.76;100.00
18436;BME280;9346;52.006;4.720;2022-07-04T01:31:26;101859.97;;;15.74;100.00
18436;BME280;9346;52.006;4.720;2022-07-04T01:33:53;101855.53;;;15.73;100.00
18436;BME280;9346;52.006;4.720;2022-07-04T01:36:20;101855.53;;;15.73;100.00
18436;BME280;9346;52.006;4.720;2022-07-04T01:38:49;101855.25;;;15.69;100.00
18436;BME280;9346;52.006;4.720;2022-07-04T01:41:16;101863.59;;;15.69;100.00
18436;BME280;9346;52.006;4.720;2022-07-04T01:43:43;101856.66;;;15.67;100.00
18436;BME280;9346;52.006;4.720;2022-07-04T01:46:10;101852.53;;;15.64;100.00
18436;BME280;9346;52.006;4.720;2022-07-04T01:48:37;101855.31;;;15.59;100.00
18436;BME280;9346;52.006;4.720;2022-07-04T01:51:04;101854.22;;;15.55;100.00
18436;BME280;9346;52.006;4.720;2022-07-04T01:53:31;101853.13;;;15.51;100.00
18436;BME280;9346;52.006;4.720;2022-07-04T01:56:04;101852.56;;;15.49;100.00
18436;BME280;9346;52.006;4.720;2022-07-04T01:58:31;101859.78;;;15.50;100.00
18436;BME280;9346;52.006;4.720;2022-07-04T02:00:58;101850.34;;;15.51;100.00
18436;BME280;9346;52.006;4.720;2022-07-04T02:03:42;101851.44;;;15.50;100.00
18436;BME280;9346;52.006;4.720;2022-07-04T02:06:10;101852.28;;;15.50;100.00
18436;BME280;9346;52.006;4.720;2022-07-04T02:08:37;101853.13;;;15.51;100.00
18436;BME280;9346;52.006;4.720;2022-07-04T02:11:23;101848.94;;;15.48;100.00
18436;BME280;9346;52.006;4.720;2022-07-04T02:13:50;101842.59;;;15.48;100.00
18436;BME280;9346;52.006;4.720;2022-07-04T02:16:15;101839.81;;;15.48;100.00
18436;BME280;9346;52.006;4.720;2022-07-04T02:18:42;101838.13;;;15.47;100.00
18436;BME280;9346;52.006;4.720;2022-07-04T02:21:09;101842.03;;;15.46;100.00
18436;BME280;9346;52.006;4.720;2022-07-04T02:23:36;101847.84;;;15.44;100.00
18436;BME280;9346;52.006;4.720;2022-07-04T02:26:03;101848.97;;;15.43;100.00
18436;BME280;9346;52.006;4.720;2022-07-04T02:28:32;101855.91;;;15.41;100.00
18436;BME280;9346;52.006;4.720;2022-07-04T02:30:59;101836.78;;;15.39;100.00
18436;BME280;9346;52.006;4.720;2022-07-04T02:33:26;101844.28;;;15.39;100.00
18436;BME280;9346;52.006;4.720;2022-07-04T02:35:53;101843.44;;;15.38;100.00
18436;BME280;9346;52.006;4.720;2022-07-04T02:38:20;101840.94;;;15.37;100.00
18436;BME280;9346;52.006;4.720;2022-07-04T02:40:47;101848.69;;;15.35;100.00
18436;BME280;9346;52.006;4.720;2022-07-04T02:43:14;101844.50;;;15.32;100.00
18436;BME280;9346;52.006;4.720;2022-07-04T02:45:43;101844.78;;;15.31;100.00
18436;BME280;9346;52.006;4.720;2022-07-04T02:48:09;101850.63;;;15.29;100.00
18436;BME280;9346;52.006;4.720;2022-07-04T02:50:36;101852.59;;;15.29;100.00
18436;BME280;9346;52.006;4.720;2022-07-04T02:53:03;101853.16;;;15.26;100.00
18436;BME280;9346;52.006;4.720;2022-07-04T02:55:30;101858.16;;;15.24;100.00
18436;BME280;9346;52.006;4.720;2022-07-04T02:57:58;101854.56;;;15.23;100.00
18436;BME280;9346;52.006;4.720;2022-07-04T03:00:25;101858.16;;;15.24;100.00
18436;BME280;9346;52.006;4.720;2022-07-04T03:02:54;101859.25;;;15.23;100.00
18436;BME280;9346;52.006;4.720;2022-07-04T03:05:21;101865.94;;;15.22;100.00
18436;BME280;9346;52.006;4.720;2022-07-04T03:07:48;101863.16;;;15.22;100.00
18436;BME280;9346;52.006;4.720;2022-07-04T03:10:15;101859.81;;;15.20;100.00
18436;BME280;9346;52.006;4.720;2022-07-04T03:12:42;101857.91;;;15.20;100.00
18436;BME280;9346;52.006;4.720;2022-07-04T03:15:09;101859.25;;;15.18;100.00
18436;BME280;9346;52.006;4.720;2022-07-04T03:17:36;101855.09;;;15.15;100.00
18436;BME280;9346;52.006;4.720;2022-07-04T03:20:07;101861.78;;;15.14;100.00
18436;BME280;9346;52.006;4.720;2022-07-04T03:22:34;101861.22;;;15.12;100.00
18436;BME280;9346;52.006;4.720;2022-07-04T03:25:01;101859.56;;;15.11;100.00
18436;BME280;9346;52.006;4.720;2022-07-04T03:27:30;101861.50;;;15.11;100.00
18436;BME280;9346;52.006;4.720;2022-07-04T03:29:57;101860.97;;;15.09;100.00
18436;BME280;9346;52.006;4.720;2022-07-04T03:32:24;101857.06;;;15.10;100.00
18436;BME280;9346;52.006;4.720;2022-07-04T03:34:50;101867.31;;;15.09;100.00
18436;BME280;9346;52.006;4.720;2022-07-04T03:37:19;101872.06;;;15.09;100.00
18436;BME280;9346;52.006;4.720;2022-07-04T03:39:46;101876.78;;;15.08;100.00
18436;BME280;9346;52.006;4.720;2022-07-04T03:42:13;101875.94;;;15.08;100.00
18436;BME280;9346;52.006;4.720;2022-07-04T03:44:39;101871.50;;;15.07;100.00
18436;BME280;9346;52.006;4.720;2022-07-04T03:47:06;101875.13;;;15.07;100.00
18436;BME280;9346;52.006;4.720;2022-07-04T03:49:33;101877.31;;;15.05;100.00
18436;BME280;9346;52.006;4.720;2022-07-04T03:52:00;101884.81;;;15.05;100.00
18436;BME280;9346;52.006;4.720;2022-07-04T03:54:29;101890.94;;;15.07;100.00
18436;BME280;9346;52.006;4.720;2022-07-04T03:56:56;101889.81;;;15.08;100.00
18436;BME280;9346;52.006;4.720;2022-07-04T03:59:23;101893.94;;;15.10;100.00
18436;BME280;9346;52.006;4.720;2022-07-04T04:01:50;101899.50;;;15.10;100.00
18436;BME280;9346;52.006;4.720;2022-07-04T04:04:16;101907.03;;;15.10;100.00
18436;BME280;9346;52.006;4.720;2022-07-04T04:07:00;101905.06;;;15.10;100.00
18436;BME280;9346;52.006;4.720;2022-07-04T04:09:30;101905.06;;;15.10;100.00
18436;BME280;9346;52.006;4.720;2022-07-04T04:11:57;101909.53;;;15.11;100.00
18436;BME280;9346;52.006;4.720;2022-07-04T04:14:24;101914.50;;;15.09;100.00
18436;BME280;9346;52.006;4.720;2022-07-04T04:16:52;101922.81;;;15.09;100.00
18436;BME280;9346;52.006;4.720;2022-07-04T04:19:19;101920.31;;;15.08;100.00
18436;BME280;9346;52.006;4.720;2022-07-04T04:21:46;101923.09;;;15.08;100.00
18436;BME280;9346;52.006;4.720;2022-07-04T04:24:13;101932.00;;;15.10;100.00
18436;BME280;9346;52.006;4.720;2022-07-04T04:26:41;101931.16;;;15.09;100.00
18436;BME280;9346;52.006;4.720;2022-07-04T04:29:08;101937.81;;;15.13;100.00
18436;BME280;9346;52.006;4.720;2022-07-04T04:31:36;101941.41;;;15.14;100.00
18436;BME280;9346;52.006;4.720;2022-07-04T04:34:03;101940.28;;;15.15;100.00
18436;BME280;9346;52.006;4.720;2022-07-04T04:36:30;101948.34;;;15.16;100.00
18436;BME280;9346;52.006;4.720;2022-07-04T04:38:57;101949.19;;;15.17;100.00
18436;BME280;9346;52.006;4.720;2022-07-04T04:41:24;101956.41;;;15.18;100.00
18436;BME280;9346;52.006;4.720;2022-07-04T04:43:52;101966.13;;;15.20;100.00
18436;BME280;9346;52.006;4.720;2022-07-04T04:46:19;101961.13;;;15.22;100.00
18436;BME280;9346;52.006;4.720;2022-07-04T04:48:46;101966.13;;;15.25;100.00
18436;BME280;9346;52.006;4.720;2022-07-04T04:51:13;101971.97;;;15.29;100.00
18436;BME280;9346;52.006;4.720;2022-07-04T04:53:40;101976.69;;;15.33;100.00
18436;BME280;9346;52.006;4.720;2022-07-04T04:56:07;101973.09;;;15.38;100.00
18436;BME280;9346;52.006;4.720;2022-07-04T04:58:34;101977.25;;;15.40;100.00
18436;BME280;9346;52.006;4.720;2022-07-04T05:01:02;101986.97;;;15.43;100.00
18436;BME280;9346;52.006;4.720;2022-07-04T05:03:29;101985.28;;;15.47;100.00
18436;BME280;9346;52.006;4.720;2022-07-04T05:05:56;101986.41;;;15.51;100.00
18436;BME280;9346;52.006;4.720;2022-07-04T05:08:23;101989.16;;;15.56;100.00
18436;BME280;9346;52.006;4.720;2022-07-04T05:10:50;101989.72;;;15.63;100.00
18436;BME280;9346;52.006;4.720;2022-07-04T05:13:18;101993.03;;;15.70;100.00
18436;BME280;9346;52.006;4.720;2022-07-04T05:15:46;101997.47;;;15.76;100.00
18436;BME280;9346;52.006;4.720;2022-07-04T05:18:15;101997.47;;;15.81;100.00
18436;BME280;9346;52.006;4.720;2022-07-04T05:20:42;102005.78;;;15.86;100.00
18436;BME280;9346;52.006;4.720;2022-07-04T05:23:09;102009.94;;;15.94;100.00
18436;BME280;9346;52.006;4.720;2022-07-04T05:25:37;102017.97;;;16.00;100.00
18436;BME280;9346;52.006;4.720;2022-07-04T05:28:03;102021.84;;;16.04;100.00
18436;BME280;9346;52.006;4.720;2022-07-04T05:30:31;102009.06;;;16.08;100.00
18436;BME280;9346;52.006;4.720;2022-07-04T05:32:57;102002.66;;;16.13;100.00
18436;BME280;9346;52.006;4.720;2022-07-04T05:35:27;102005.94;;;16.20;100.00
18436;BME280;9346;52.006;4.720;2022-07-04T05:37:55;101994.25;;;16.28;100.00
18436;BME280;9346;52.006;4.720;2022-07-04T05:40:22;102001.47;;;16.34;100.00
18436;BME280;9346;52.006;4.720;2022-07-04T05:42:49;102006.41;;;16.42;100.00
18436;BME280;9346;52.006;4.720;2022-07-04T05:45:17;102015.88;;;16.51;100.00
18436;BME280;9346;52.006;4.720;2022-07-04T05:47:43;102012.47;;;16.59;100.00
18436;BME280;9346;52.006;4.720;2022-07-04T05:50:11;102018.31;;;16.67;100.00
18436;BME280;9346;52.006;4.720;2022-07-04T05:52:39;102020.75;;;16.74;100.00
18436;BME280;9346;52.006;4.720;2022-07-04T05:55:07;102012.91;;;16.81;100.00
18436;BME280;9346;52.006;4.720;2022-07-04T05:57:34;102018.47;;;16.86;100.00
18436;BME280;9346;52.006;4.720;2022-07-04T06:00:01;102014.25;;;16.93;100.00
18436;BME280;9346;52.006;4.720;2022-07-04T06:02:28;102000.00;;;17.00;100.00
18436;BME280;9346;52.006;4.720;2022-07-04T06:04:55;102007.44;;;17.09;100.00
18436;BME280;9346;52.006;4.720;2022-07-04T06:07:22;101999.50;;;17.26;100.00
18436;BME280;9346;52.006;4.720;2022-07-04T06:09:51;101998.84;;;17.39;100.00
18436;BME280;9346;52.006;4.720;2022-07-04T06:12:18;101996.84;;;17.50;100.00
18436;BME280;9346;52.006;4.720;2022-07-04T06:14:45;101995.38;;;17.57;100.00
18436;BME280;9346;52.006;4.720;2022-07-04T06:17:12;101993.09;;;17.64;100.00
18436;BME280;9346;52.006;4.720;2022-07-04T06:19:39;101987.91;;;17.76;100.00
18436;BME280;9346;52.006;4.720;2022-07-04T06:22:06;101981.97;;;17.88;100.00
18436;BME280;9346;52.006;4.720;2022-07-04T06:24:33;101967.84;;;18.03;100.00
18436;BME280;9346;52.006;4.720;2022-07-04T06:27:02;101954.00;;;18.17;100.00
18436;BME280;9346;52.006;4.720;2022-07-04T06:29:30;101958.91;;;18.25;100.00
18436;BME280;9346;52.006;4.720;2022-07-04T06:31:56;101954.72;;;18.27;100.00
18436;BME280;9346;52.006;4.720;2022-07-04T06:34:23;101961.00;;;18.38;100.00
18436;BME280;9346;52.006;4.720;2022-07-04T06:37:07;101957.31;;;18.42;100.00
18436;BME280;9346;52.006;4.720;2022-07-04T06:39:34;101949.66;;;18.53;100.00
18436;BME280;9346;52.006;4.720;2022-07-04T06:42:03;101957.03;;;18.62;100.00
18436;BME280;9346;52.006;4.720;2022-07-04T06:44:30;101945.50;;;18.69;100.00
18436;BME280;9346;52.006;4.720;2022-07-04T06:46:57;101935.09;;;18.74;100.00
18436;BME280;9346;52.006;4.720;2022-07-04T06:49:27;101936.06;;;18.83;100.00
18436;BME280;9346;52.006;4.720;2022-07-04T06:51:56;101935.91;;;18.93;100.00
18436;BME280;9346;52.006;4.720;2022-07-04T06:54:23;101942.78;;;19.01;100.00
18436;BME280;9346;52.006;4.720;2022-07-04T06:56:50;101930.75;;;19.00;100.00
18436;BME280;9346;52.006;4.720;2022-07-04T06:59:20;101917.94;;;18.99;100.00
18436;BME280;9346;52.006;4.720;2022-07-04T07:01:46;101909.88;;;18.98;100.00
18436;BME280;9346;52.006;4.720;2022-07-04T07:04:13;101909.50;;;19.04;100.00
18436;BME280;9346;52.006;4.720;2022-07-04T07:06:40;101918.19;;;19.16;100.00
18436;BME280;9346;52.006;4.720;2022-07-04T07:09:07;101912.41;;;19.31;100.00
18436;BME280;9346;52.006;4.720;2022-07-04T07:11:34;101904.66;;;19.42;100.00
18436;BME280;9346;52.006;4.720;2022-07-04T07:14:01;101905.28;;;19.52;100.00
18436;BME280;9346;52.006;4.720;2022-07-04T07:16:30;101899.59;;;19.57;100.00
18436;BME280;9346;52.006;4.720;2022-07-04T07:18:57;101895.47;;;19.68;100.00
18436;BME280;9346;52.006;4.720;2022-07-04T07:21:24;101898.06;;;19.78;100.00
18436;BME280;9346;52.006;4.720;2022-07-04T07:23:51;101909.56;;;19.90;100.00
18436;BME280;9346;52.006;4.720;2022-07-04T07:26:17;101909.03;;;20.02;100.00
18436;BME280;9346;52.006;4.720;2022-07-04T07:28:44;101904.50;;;20.06;100.00
18436;BME280;9346;52.006;4.720;2022-07-04T07:31:11;101904.19;;;20.08;100.00
18436;BME280;9346;52.006;4.720;2022-07-04T07:33:40;101900.72;;;20.11;100.00
18436;BME280;9346;52.006;4.720;2022-07-04T07:36:07;101903.38;;;20.21;100.00
18436;BME280;9346;52.006;4.720;2022-07-04T07:38:34;101910.47;;;20.27;100.00
18436;BME280;9346;52.006;4.720;2022-07-04T07:41:07;101905.31;;;20.34;100.00
18436;BME280;9346;52.006;4.720;2022-07-04T07:43:35;101905.69;;;20.41;100.00
18436;BME280;9346;52.006;4.720;2022-07-04T07:46:05;101895.44;;;20.50;100.00
18436;BME280;9346;52.006;4.720;2022-07-04T07:48:33;101903.28;;;20.61;100.00
18436;BME280;9346;52.006;4.720;2022-07-04T07:51:02;101909.56;;;20.67;100.00
18436;BME280;9346;52.006;4.720;2022-07-04T07:53:29;101910.78;;;20.74;100.00
18436;BME280;9346;52.006;4.720;2022-07-04T07:55:57;101907.22;;;20.82;100.00
18436;BME280;9346;52.006;4.720;2022-07-04T07:58:33;101917.38;;;20.92;100.00
18436;BME280;9346;52.006;4.720;2022-07-04T08:01:08;101910.84;;;20.96;100.00
18436;BME280;9346;52.006;4.720;2022-07-04T08:03:35;101912.56;;;20.92;100.00
18436;BME280;9346;52.006;4.720;2022-07-04T08:06:21;101910.94;;;20.91;100.00
18436;BME280;9346;52.006;4.720;2022-07-04T08:08:48;101914.97;;;20.99;100.00
18436;BME280;9346;52.006;4.720;2022-07-04T08:11:19;101914.84;;;21.04;100.00
18436;BME280;9346;52.006;4.720;2022-07-04T08:13:50;101922.28;;;21.08;100.00
18436;BME280;9346;52.006;4.720;2022-07-04T08:16:19;101920.84;;;21.11;100.00
18436;BME280;9346;52.006;4.720;2022-07-04T08:18:49;101921.16;;;21.09;100.00
18436;BME280;9346;52.006;4.720;2022-07-04T08:21:17;101925.97;;;21.17;100.00
18436;BME280;9346;52.006;4.720;2022-07-04T08:23:45;101927.19;;;21.25;100.00
18436;BME280;9346;52.006;4.720;2022-07-04T08:26:12;101931.84;;;21.29;100.00
18436;BME280;9346;52.006;4.720;2022-07-04T08:28:39;101939.47;;;21.37;100.00
18436;BME280;9346;52.006;4.720;2022-07-04T08:31:06;101942.31;;;21.46;100.00
18436;BME280;9346;52.006;4.720;2022-07-04T08:33:33;101940.34;;;21.46;100.00
18436;BME280;9346;52.006;4.720;2022-07-04T08:36:00;101939.72;;;21.49;100.00
18436;BME280;9346;52.006;4.720;2022-07-04T08:38:27;101944.03;;;21.55;100.00
18436;BME280;9346;52.006;4.720;2022-07-04T08:40:57;101946.03;;;21.63;100.00
18436;BME280;9346;52.006;4.720;2022-07-04T08:43:25;101935.94;;;21.76;100.00
18436;BME280;9346;52.006;4.720;2022-07-04T08:45:54;101942.56;;;21.88;100.00
18436;BME280;9346;52.006;4.720;2022-07-04T08:48:24;101940.63;;;21.98;100.00
18436;BME280;9346;52.006;4.720;2022-07-04T08:50:55;101946.09;;;22.02;100.00
18436;BME280;9346;52.006;4.720;2022-07-04T08:53:27;101948.41;;;22.01;100.00
18436;BME280;9346;52.006;4.720;2022-07-04T08:55:56;101954.78;;;21.92;100.00
18436;BME280;9346;52.006;4.720;2022-07-04T08:58:41;101955.59;;;21.84;100.00
18436;BME280;9346;52.006;4.720;2022-07-04T09:01:10;101949.44;;;21.74;100.00
18436;BME280;9346;52.006;4.720;2022-07-04T09:03:40;101953.50;;;21.68;100.00
18436;BME280;9346;52.006;4.720;2022-07-04T09:06:08;101956.44;;;21.63;100.00
18436;BME280;9346;52.006;4.720;2022-07-04T09:08:35;101958.53;;;21.57;100.00
18436;BME280;9346;52.006;4.720;2022-07-04T09:11:05;101953.72;;;21.49;100.00
18436;BME280;9346;52.006;4.720;2022-07-04T09:13:32;101956.31;;;21.46;100.00
18436;BME280;9346;52.006;4.720;2022-07-04T09:16:00;101966.84;;;21.40;100.00
18436;BME280;9346;52.006;4.720;2022-07-04T09:18:30;101959.72;;;21.34;100.00
18436;BME280;9346;52.006;4.720;2022-07-04T09:21:00;101969.59;;;21.32;100.00
18436;BME280;9346;52.006;4.720;2022-07-04T09:23:29;101964.50;;;21.34;100.00
18436;BME280;9346;52.006;4.720;2022-07-04T09:26:24;101957.13;;;21.38;100.00
18436;BME280;9346;52.006;4.720;2022-07-04T09:28:54;101955.63;;;21.40;100.00
18436;BME280;9346;52.006;4.720;2022-07-04T09:31:23;101951.34;;;21.43;100.00
18436;BME280;9346;52.006;4.720;2022-07-04T09:33:51;101950.59;;;21.51;100.00
18436;BME280;9346;52.006;4.720;2022-07-04T09:36:21;101951.94;;;21.53;100.00
18436;BME280;9346;52.006;4.720;2022-07-04T09:39:11;101960.22;;;21.58;100.00
18436;BME280;9346;52.006;4.720;2022-07-04T09:41:55;101949.16;;;21.62;100.00
18436;BME280;9346;52.006;4.720;2022-07-04T09:44:23;101952.38;;;21.69;100.00
18436;BME280;9346;52.006;4.720;2022-07-04T09:46:51;101946.63;;;21.74;100.00
18436;BME280;9346;52.006;4.720;2022-07-04T09:49:18;101956.75;;;21.83;100.00
18436;BME280;9346;52.006;4.720;2022-07-04T09:51:47;101951.00;;;21.88;100.00
18436;BME280;9346;52.006;4.720;2022-07-04T09:54:20;101960.72;;;21.91;100.00
18436;BME280;9346;52.006;4.720;2022-07-04T09:56:53;101955.97;;;21.91;100.00
18436;BME280;9346;52.006;4.720;2022-07-04T09:59:21;101961.44;;;21.97;100.00
18436;BME280;9346;52.006;4.720;2022-07-04T10:01:48;101960.13;;;22.02;100.00
18436;BME280;9346;52.006;4.720;2022-07-04T10:04:16;101959.84;;;22.13;100.00
18436;BME280;9346;52.006;4.720;2022-07-04T10:06:46;101960.19;;;22.20;100.00
18436;BME280;9346;52.006;4.720;2022-07-04T10:09:15;101960.34;;;22.15;100.00
18436;BME280;9346;52.006;4.720;2022-07-04T10:11:45;101956.56;;;22.19;100.00
18436;BME280;9346;52.006;4.720;2022-07-04T10:14:15;101953.09;;;22.22;100.00
18436;BME280;9346;52.006;4.720;2022-07-04T10:16:42;101935.81;;;22.29;100.00
18436;BME280;9346;52.006;4.720;2022-07-04T10:19:10;101952.97;;;22.27;100.00
18436;BME280;9346;52.006;4.720;2022-07-04T10:21:38;101955.78;;;22.27;100.00
18436;BME280;9346;52.006;4.720;2022-07-04T10:24:05;101953.63;;;22.24;100.00
18436;BME280;9346;52.006;4.720;2022-07-04T10:26:36;101949.97;;;22.24;100.00
18436;BME280;9346;52.006;4.720;2022-07-04T10:29:05;101959.38;;;22.19;100.00
18436;BME280;9346;52.006;4.720;2022-07-04T10:31:34;101953.94;;;22.23;100.00
18436;BME280;9346;52.006;4.720;2022-07-04T10:34:01;101958.56;;;22.27;100.00
18436;BME280;9346;52.006;4.720;2022-07-04T10:36:28;101951.47;;;22.30;100.00
18436;BME280;9346;52.006;4.720;2022-07-04T10:38:57;101956.56;;;22.28;100.00
18436;BME280;9346;52.006;4.720;2022-07-04T10:41:27;101957.25;;;22.33;100.00
18436;BME280;9346;52.006;4.720;2022-07-04T10:43:59;101958.59;;;22.36;100.00
18436;BME280;9346;52.006;4.720;2022-07-04T10:46:47;101952.47;;;22.42;100.00
18436;BME280;9346;52.006;4.720;2022-07-04T10:49:26;101957.94;;;22.39;99.67
18436;BME280;9346;52.006;4.720;2022-07-04T10:51:55;101962.91;;;22.42;100.00
18436;BME280;9346;52.006;4.720;2022-07-04T10:54:29;101956.50;;;22.50;100.00
18436;BME280;9346;52.006;4.720;2022-07-04T10:57:05;101955.84;;;22.53;98.57
18436;BME280;9346;52.006;4.720;2022-07-04T10:59:34;101951.41;;;22.52;97.23
18436;BME280;9346;52.006;4.720;2022-07-04T11:02:23;101945.56;;;22.48;96.57
18436;BME280;9346;52.006;4.720;2022-07-04T11:05:01;101945.38;;;22.45;98.96
18436;BME280;9346;52.006;4.720;2022-07-04T11:07:58;101941.91;;;22.48;100.00
18436;BME280;9346;52.006;4.720;2022-07-04T11:10:25;101953.88;;;22.53;99.41
18436;BME280;9346;52.006;4.720;2022-07-04T11:13:15;101953.72;;;22.58;98.81
18436;BME280;9346;52.006;4.720;2022-07-04T11:16:03;101948.41;;;22.57;99.59
18436;BME280;9346;52.006;4.720;2022-07-04T11:18:40;101945.94;;;22.64;99.02
18436;BME280;9346;52.006;4.720;2022-07-04T11:21:21;101949.91;;;22.71;99.21
18436;BME280;9346;52.006;4.720;2022-07-04T11:23:53;101954.72;;;22.88;100.00
18436;BME280;9346;52.006;4.720;2022-07-04T11:26:21;101946.63;;;23.03;100.00
18436;BME280;9346;52.006;4.720;2022-07-04T11:28:49;101948.13;;;23.09;97.07
18436;BME280;9346;52.006;4.720;2022-07-04T11:31:17;101938.69;;;23.22;98.16
18436;BME280;9346;52.006;4.720;2022-07-04T11:33:46;101942.81;;;23.33;97.61
18436;BME280;9346;52.006;4.720;2022-07-04T11:36:16;101944.63;;;23.38;97.31
18436;BME280;9346;52.006;4.720;2022-07-04T11:38:50;101940.34;;;23.40;96.91
18436;BME280;9346;52.006;4.720;2022-07-04T11:41:19;101945.91;;;23.57;96.39
18436;BME280;9346;52.006;4.720;2022-07-04T11:44:05;101938.78;;;23.60;95.25
18436;BME280;9346;52.006;4.720;2022-07-04T11:46:50;101943.75;;;23.63;93.23
18436;BME280;9346;52.006;4.720;2022-07-04T11:49:19;101937.16;;;23.59;94.09
18436;BME280;9346;52.006;4.720;2022-07-04T11:51:47;101934.94;;;23.73;94.87
18436;BME280;9346;52.006;4.720;2022-07-04T11:54:14;101931.25;;;23.89;95.31
18436;BME280;9346;52.006;4.720;2022-07-04T11:56:41;101934.34;;;24.05;94.93
18436;BME280;9346;52.006;4.720;2022-07-04T11:59:12;101930.69;;;24.13;93.17
18436;BME280;9346;52.006;4.720;2022-07-04T12:01:41;101935.50;;;24.04;90.69
18436;BME280;9346;52.006;4.720;2022-07-04T12:04:13;101936.53;;;23.91;89.09
18436;BME280;9346;52.006;4.720;2022-07-04T12:06:43;101929.16;;;23.78;89.92
18436;BME280;9346;52.006;4.720;2022-07-04T12:09:10;101912.72;;;23.80;92.10
18436;BME280;9346;52.006;4.720;2022-07-04T12:11:54;101920.13;;;24.02;92.17
18436;BME280;9346;52.006;4.720;2022-07-04T12:14:37;101926.50;;;24.19;90.80
18436;BME280;9346;52.006;4.720;2022-07-04T12:17:13;101918.13;;;24.31;88.86
18436;BME280;9346;52.006;4.720;2022-07-04T12:19:54;101922.91;;;24.39;87.47
18436;BME280;9346;52.006;4.720;2022-07-04T12:22:29;101914.22;;;24.44;86.90
18436;BME280;9346;52.006;4.720;2022-07-04T12:25:00;101906.41;;;24.50;86.00
18436;BME280;9346;52.006;4.720;2022-07-04T12:27:28;101908.59;;;24.44;87.44
18436;BME280;9346;52.006;4.720;2022-07-04T12:29:58;101906.69;;;24.36;87.93
18436;BME280;9346;52.006;4.720;2022-07-04T12:32:43;101905.94;;;24.48;86.54
18436;BME280;9346;52.006;4.720;2022-07-04T12:38:16;101909.06;;;24.75;85.76
18436;BME280;9346;52.006;4.720;2022-07-04T12:40:54;101916.06;;;24.69;83.82
18436;BME280;9346;52.006;4.720;2022-07-04T12:43:22;101911.28;;;24.70;85.11
18436;BME280;9346;52.006;4.720;2022-07-04T12:45:53;101899.50;;;24.88;85.16
18436;BME280;9346;52.006;4.720;2022-07-04T12:48:26;101911.66;;;24.80;83.86
18436;BME280;9346;52.006;4.720;2022-07-04T12:50:55;101910.59;;;24.73;83.83
18436;BME280;9346;52.006;4.720;2022-07-04T12:53:21;101903.22;;;24.80;83.87
18436;BME280;9346;52.006;4.720;2022-07-04T12:55:49;101901.13;;;24.77;83.38
18436;BME280;9346;52.006;4.720;2022-07-04T12:58:16;101903.16;;;24.68;83.08
18436;BME280;9346;52.006;4.720;2022-07-04T13:00:44;101901.03;;;24.65;83.29
18436;BME280;9346;52.006;4.720;2022-07-04T13:03:12;101901.19;;;24.60;83.08
18436;BME280;9346;52.006;4.720;2022-07-04T13:05:39;101899.41;;;24.56;83.79